sensor_id;sensor_type;location;lat;lon;timestamp;temperature;humidity
20839;DHT22;10580;51.092;6.828;2023-05-19T00:01:31;9.20;1.00
20839;DHT22;10580;51.092;6.828;2023-05-19T00:03:58;9.20;1.00
20839;DHT22;10580;51.092;6.828;2023-05-19T00:06:28;9.10;1.00
20839;DHT22;10580;51.092;6.828;2023-05-19T00:09:06;9.00;1.00
20839;DHT22;10580;51.092;6.828;2023-05-19T00:11:33;9.00;1.00
20839;DHT22;10580;51.092;6.828;2023-05-19T00:14:03;9.00;1.00
20839;DHT22;10580;51.092;6.828;2023-05-19T00:16:30;9.00;1.00
20839;DHT22;10580;51.092;6.828;2023-05-19T00:19:00;9.00;1.00
20839;DHT22;10580;51.092;6.828;2023-05-19T00:21:27;9.00;1.00
20839;DHT22;10580;51.092;6.828;2023-05-19T00:23:53;9.00;1.00
20839;DHT22;10580;51.092;6.828;2023-05-19T00:26:19;9.00;1.00
20839;DHT22;10580;51.092;6.828;2023-05-19T00:28:47;9.00;1.00
20839;DHT22;10580;51.092;6.828;2023-05-19T00:31:12;9.00;1.00
20839;DHT22;10580;51.092;6.828;2023-05-19T00:33:38;8.90;1.00
20839;DHT22;10580;51.092;6.828;2023-05-19T00:36:04;8.90;1.00
20839;DHT22;10580;51.092;6.828;2023-05-19T00:38:34;8.90;1.00
20839;DHT22;10580;51.092;6.828;2023-05-19T00:41:01;8.90;1.00
20839;DHT22;10580;51.092;6.828;2023-05-19T00:43:27;8.90;1.00
20839;DHT22;10580;51.092;6.828;2023-05-19T00:45:55;8.90;1.00
20839;DHT22;10580;51.092;6.828;2023-05-19T00:48:21;8.90;1.00
20839;DHT22;10580;51.092;6.828;2023-05-19T00:50:48;8.90;1.00
20839;DHT22;10580;51.092;6.828;2023-05-19T00:53:17;8.90;1.00
20839;DHT22;10580;51.092;6.828;2023-05-19T00:55:43;8.80;1.00
20839;DHT22;10580;51.092;6.828;2023-05-19T00:58:11;8.80;1.00
20839;DHT22;10580;51.092;6.828;2023-05-19T01:00:37;8.80;1.00
20839;DHT22;10580;51.092;6.828;2023-05-19T01:03:04;8.70;1.00
20839;DHT22;10580;51.092;6.828;2023-05-19T01:05:39;8.70;1.00
20839;DHT22;10580;51.092;6.828;2023-05-19T01:08:12;8.70;1.00
20839;DHT22;10580;51.092;6.828;2023-05-19T01:10:37;8.60;1.00
20839;DHT22;10580;51.092;6.828;2023-05-19T01:13:04;8.60;1.00
20839;DHT22;10580;51.092;6.828;2023-05-19T01:15:33;8.60;1.00
20839;DHT22;10580;51.092;6.828;2023-05-19T01:18:13;8.60;1.00
20839;DHT22;10580;51.092;6.828;2023-05-19T01:20:44;8.50;1.00
20839;DHT22;10580;51.092;6.828;2023-05-19T01:23:45;8.50;1.00
20839;DHT22;10580;51.092;6.828;2023-05-19T01:31:39;8.50;1.00
20839;DHT22;10580;51.092;6.828;2023-05-19T01:34:07;8.40;1.00
20839;DHT22;10580;51.092;6.828;2023-05-19T01:36:35;8.40;1.00
20839;DHT22;10580;51.092;6.828;2023-05-19T01:39:03;8.40;1.00
20839;DHT22;10580;51.092;6.828;2023-05-19T01:41:30;8.30;1.00
20839;DHT22;10580;51.092;6.828;2023-05-19T01:43:58;8.30;1.00
20839;DHT22;10580;51.092;6.828;2023-05-19T01:46:24;8.20;1.00
20839;DHT22;10580;51.092;6.828;2023-05-19T01:48:51;8.10;1.00
20839;DHT22;10580;51.092;6.828;2023-05-19T01:51:17;8.10;1.00
20839;DHT22;10580;51.092;6.828;2023-05-19T01:53:42;8.10;1.00
20839;DHT22;10580;51.092;6.828;2023-05-19T01:56:08;8.00;1.00
20839;DHT22;10580;51.092;6.828;2023-05-19T01:58:42;8.00;1.00
20839;DHT22;10580;51.092;6.828;2023-05-19T02:01:34;7.90;1.00
20839;DHT22;10580;51.092;6.828;2023-05-19T02:07:02;7.80;1.00
20839;DHT22;10580;51.092;6.828;2023-05-19T02:09:58;7.80;1.00
20839;DHT22;10580;51.092;6.828;2023-05-19T02:12:33;7.80;1.00
20839;DHT22;10580;51.092;6.828;2023-05-19T02:15:03;7.80;1.00
20839;DHT22;10580;51.092;6.828;2023-05-19T02:17:31;7.80;1.00
20839;DHT22;10580;51.092;6.828;2023-05-19T02:19:58;7.80;1.00
20839;DHT22;10580;51.092;6.828;2023-05-19T02:22:24;7.80;1.00
20839;DHT22;10580;51.092;6.828;2023-05-19T02:24:49;7.80;1.00
20839;DHT22;10580;51.092;6.828;2023-05-19T02:27:16;7.80;1.00
20839;DHT22;10580;51.092;6.828;2023-05-19T02:29:42;7.80;1.00
20839;DHT22;10580;51.092;6.828;2023-05-19T02:32:09;7.70;1.00
20839;DHT22;10580;51.092;6.828;2023-05-19T02:34:35;7.70;1.00
20839;DHT22;10580;51.092;6.828;2023-05-19T02:37:00;7.70;1.00
20839;DHT22;10580;51.092;6.828;2023-05-19T02:39:26;7.60;1.00
20839;DHT22;10580;51.092;6.828;2023-05-19T02:41:53;7.60;1.00
20839;DHT22;10580;51.092;6.828;2023-05-19T02:44:19;7.60;1.00
20839;DHT22;10580;51.092;6.828;2023-05-19T02:46:44;7.60;1.00
20839;DHT22;10580;51.092;6.828;2023-05-19T02:49:10;7.60;1.00
20839;DHT22;10580;51.092;6.828;2023-05-19T02:51:36;7.50;1.00
20839;DHT22;10580;51.092;6.828;2023-05-19T02:54:01;7.50;1.00
20839;DHT22;10580;51.092;6.828;2023-05-19T02:56:27;7.50;1.00
20839;DHT22;10580;51.092;6.828;2023-05-19T02:58:53;7.50;1.00
20839;DHT22;10580;51.092;6.828;2023-05-19T03:01:18;7.40;1.00
20839;DHT22;10580;51.092;6.828;2023-05-19T03:03:47;7.40;1.00
20839;DHT22;10580;51.092;6.828;2023-05-19T03:06:12;7.30;1.00
20839;DHT22;10580;51.092;6.828;2023-05-19T03:08:39;7.30;5.80
20839;DHT22;10580;51.092;6.828;2023-05-19T03:11:05;7.30;51.50
20839;DHT22;10580;51.092;6.828;2023-05-19T03:13:31;7.30;99.90
20839;DHT22;10580;51.092;6.828;2023-05-19T03:15:56;7.30;99.90
20839;DHT22;10580;51.092;6.828;2023-05-19T03:18:24;7.20;99.90
20839;DHT22;10580;51.092;6.828;2023-05-19T03:20:50;7.20;99.90
20839;DHT22;10580;51.092;6.828;2023-05-19T03:23:18;7.20;99.90
20839;DHT22;10580;51.092;6.828;2023-05-19T03:25:44;7.20;99.90
20839;DHT22;10580;51.092;6.828;2023-05-19T03:28:10;7.20;99.90
20839;DHT22;10580;51.092;6.828;2023-05-19T03:30:35;7.20;99.90
20839;DHT22;10580;51.092;6.828;2023-05-19T03:33:01;7.20;1.00
20839;DHT22;10580;51.092;6.828;2023-05-19T03:35:27;7.30;1.00
20839;DHT22;10580;51.092;6.828;2023-05-19T03:37:52;7.30;1.00
20839;DHT22;10580;51.092;6.828;2023-05-19T03:40:18;7.30;1.00
20839;DHT22;10580;51.092;6.828;2023-05-19T03:42:44;7.20;1.00
20839;DHT22;10580;51.092;6.828;2023-05-19T03:45:10;7.20;1.00
20839;DHT22;10580;51.092;6.828;2023-05-19T03:47:35;7.30;99.90
20839;DHT22;10580;51.092;6.828;2023-05-19T03:50:01;7.20;99.90
20839;DHT22;10580;51.092;6.828;2023-05-19T03:52:27;7.30;99.90
20839;DHT22;10580;51.092;6.828;2023-05-19T03:54:53;7.30;99.90
20839;DHT22;10580;51.092;6.828;2023-05-19T03:57:19;7.30;99.90
20839;DHT22;10580;51.092;6.828;2023-05-19T03:59:44;7.30;99.90
20839;DHT22;10580;51.092;6.828;2023-05-19T04:02:10;7.30;99.90
20839;DHT22;10580;51.092;6.828;2023-05-19T04:04:36;7.30;99.90
20839;DHT22;10580;51.092;6.828;2023-05-19T04:07:02;7.30;99.90
20839;DHT22;10580;51.092;6.828;2023-05-19T04:09:28;7.30;99.90
20839;DHT22;10580;51.092;6.828;2023-05-19T04:11:56;7.40;1.00
20839;DHT22;10580;51.092;6.828;2023-05-19T04:14:21;7.40;1.00
20839;DHT22;10580;51.092;6.828;2023-05-19T04:16:48;7.40;1.00
20839;DHT22;10580;51.092;6.828;2023-05-19T04:19:13;7.40;1.00
20839;DHT22;10580;51.092;6.828;2023-05-19T04:21:39;7.50;1.00
20839;DHT22;10580;51.092;6.828;2023-05-19T04:24:05;7.50;1.00
20839;DHT22;10580;51.092;6.828;2023-05-19T04:26:31;7.60;1.00
20839;DHT22;10580;51.092;6.828;2023-05-19T04:28:58;7.80;1.00
20839;DHT22;10580;51.092;6.828;2023-05-19T04:31:24;7.90;1.00
20839;DHT22;10580;51.092;6.828;2023-05-19T04:33:51;8.00;1.00
20839;DHT22;10580;51.092;6.828;2023-05-19T04:36:17;8.10;1.00
20839;DHT22;10580;51.092;6.828;2023-05-19T04:38:46;8.30;1.00
20839;DHT22;10580;51.092;6.828;2023-05-19T04:41:11;9.00;1.00
20839;DHT22;10580;51.092;6.828;2023-05-19T04:43:38;10.00;1.00
20839;DHT22;10580;51.092;6.828;2023-05-19T04:46:12;10.80;99.90
20839;DHT22;10580;51.092;6.828;2023-05-19T04:48:38;11.40;1.00
20839;DHT22;10580;51.092;6.828;2023-05-19T04:51:07;11.60;1.00
20839;DHT22;10580;51.092;6.828;2023-05-19T04:53:32;11.90;1.00
20839;DHT22;10580;51.092;6.828;2023-05-19T04:55:58;12.50;1.00
20839;DHT22;10580;51.092;6.828;2023-05-19T04:58:27;13.60;1.00
20839;DHT22;10580;51.092;6.828;2023-05-19T05:00:53;14.90;1.00
20839;DHT22;10580;51.092;6.828;2023-05-19T05:03:24;16.00;1.00
20839;DHT22;10580;51.092;6.828;2023-05-19T05:05:50;17.00;1.00
20839;DHT22;10580;51.092;6.828;2023-05-19T05:08:17;17.80;1.00
20839;DHT22;10580;51.092;6.828;2023-05-19T05:10:51;18.50;1.00
20839;DHT22;10580;51.092;6.828;2023-05-19T05:13:19;19.00;1.00
20839;DHT22;10580;51.092;6.828;2023-05-19T05:15:45;19.30;1.00
20839;DHT22;10580;51.092;6.828;2023-05-19T05:18:12;19.90;1.00
20839;DHT22;10580;51.092;6.828;2023-05-19T05:20:39;20.50;1.00
20839;DHT22;10580;51.092;6.828;2023-05-19T05:23:05;20.80;1.00
20839;DHT22;10580;51.092;6.828;2023-05-19T05:25:38;21.10;1.00
20839;DHT22;10580;51.092;6.828;2023-05-19T05:28:04;21.70;1.00
20839;DHT22;10580;51.092;6.828;2023-05-19T05:30:33;21.80;1.00
20839;DHT22;10580;51.092;6.828;2023-05-19T05:33:02;22.00;1.00
20839;DHT22;10580;51.092;6.828;2023-05-19T05:35:37;22.20;1.00
20839;DHT22;10580;51.092;6.828;2023-05-19T05:38:05;22.50;1.00
20839;DHT22;10580;51.092;6.828;2023-05-19T05:40:37;22.70;1.00
20839;DHT22;10580;51.092;6.828;2023-05-19T05:43:08;22.70;1.00
20839;DHT22;10580;51.092;6.828;2023-05-19T05:45:55;22.80;1.00
20839;DHT22;10580;51.092;6.828;2023-05-19T05:51:16;23.40;1.00
20839;DHT22;10580;51.092;6.828;2023-05-19T05:53:50;23.70;1.00
20839;DHT22;10580;51.092;6.828;2023-05-19T05:56:19;23.90;1.00
20839;DHT22;10580;51.092;6.828;2023-05-19T05:58:50;24.00;1.00
20839;DHT22;10580;51.092;6.828;2023-05-19T06:01:24;24.10;1.00
20839;DHT22;10580;51.092;6.828;2023-05-19T06:04:03;24.20;1.00
20839;DHT22;10580;51.092;6.828;2023-05-19T06:09:33;24.20;1.00
20839;DHT22;10580;51.092;6.828;2023-05-19T06:12:09;24.30;1.00
20839;DHT22;10580;51.092;6.828;2023-05-19T06:14:36;24.30;1.00
20839;DHT22;10580;51.092;6.828;2023-05-19T06:17:19;24.50;1.00
20839;DHT22;10580;51.092;6.828;2023-05-19T06:20:14;24.70;1.00
20839;DHT22;10580;51.092;6.828;2023-05-19T06:23:01;24.30;1.00
20839;DHT22;10580;51.092;6.828;2023-05-19T06:54:45;24.80;1.00
20839;DHT22;10580;51.092;6.828;2023-05-19T06:57:13;24.60;1.00
20839;DHT22;10580;51.092;6.828;2023-05-19T06:59:42;24.60;1.00
20839;DHT22;10580;51.092;6.828;2023-05-19T07:02:17;24.70;1.00
20839;DHT22;10580;51.092;6.828;2023-05-19T07:04:58;24.50;1.00
20839;DHT22;10580;51.092;6.828;2023-05-19T07:07:33;24.60;1.00
20839;DHT22;10580;51.092;6.828;2023-05-19T07:10:15;24.40;1.00
20839;DHT22;10580;51.092;6.828;2023-05-19T07:13:04;24.30;1.00
20839;DHT22;10580;51.092;6.828;2023-05-19T07:15:40;24.40;1.00
20839;DHT22;10580;51.092;6.828;2023-05-19T07:18:26;24.20;1.00
20839;DHT22;10580;51.092;6.828;2023-05-19T07:21:19;24.30;1.00
20839;DHT22;10580;51.092;6.828;2023-05-19T07:23:50;24.00;1.00
20839;DHT22;10580;51.092;6.828;2023-05-19T07:26:25;23.90;1.00
20839;DHT22;10580;51.092;6.828;2023-05-19T07:29:11;24.10;1.00
20839;DHT22;10580;51.092;6.828;2023-05-19T07:31:39;24.30;1.00
20839;DHT22;10580;51.092;6.828;2023-05-19T07:34:18;24.30;1.00
20839;DHT22;10580;51.092;6.828;2023-05-19T07:37:15;24.30;1.00
20839;DHT22;10580;51.092;6.828;2023-05-19T07:39:45;24.50;1.00
20839;DHT22;10580;51.092;6.828;2023-05-19T07:42:17;24.50;1.00
20839;DHT22;10580;51.092;6.828;2023-05-19T07:44:58;24.20;1.00
20839;DHT22;10580;51.092;6.828;2023-05-19T07:47:27;23.90;1.00
20839;DHT22;10580;51.092;6.828;2023-05-19T07:57:13;24.50;1.00
20839;DHT22;10580;51.092;6.828;2023-05-19T07:59:54;24.80;1.00
20839;DHT22;10580;51.092;6.828;2023-05-19T08:02:38;25.00;1.00
20839;DHT22;10580;51.092;6.828;2023-05-19T08:05:25;25.00;1.00
20839;DHT22;10580;51.092;6.828;2023-05-19T08:08:06;24.80;1.00
20839;DHT22;10580;51.092;6.828;2023-05-19T08:10:56;24.70;1.00
20839;DHT22;10580;51.092;6.828;2023-05-19T08:13:22;24.50;1.00
20839;DHT22;10580;51.092;6.828;2023-05-19T08:16:30;24.40;1.00
20839;DHT22;10580;51.092;6.828;2023-05-19T08:19:17;24.60;1.00
20839;DHT22;10580;51.092;6.828;2023-05-19T08:21:49;24.50;1.00
20839;DHT22;10580;51.092;6.828;2023-05-19T08:24:33;24.50;1.00
20839;DHT22;10580;51.092;6.828;2023-05-19T08:27:02;24.70;1.00
20839;DHT22;10580;51.092;6.828;2023-05-19T08:29:35;24.80;1.00
20839;DHT22;10580;51.092;6.828;2023-05-19T08:32:12;24.90;1.00
20839;DHT22;10580;51.092;6.828;2023-05-19T08:34:59;24.70;1.00
20839;DHT22;10580;51.092;6.828;2023-05-19T08:40:39;24.50;1.00
20839;DHT22;10580;51.092;6.828;2023-05-19T08:43:51;24.70;1.00
20839;DHT22;10580;51.092;6.828;2023-05-19T09:03:04;25.40;1.00
20839;DHT22;10580;51.092;6.828;2023-05-19T09:05:44;25.10;1.00
20839;DHT22;10580;51.092;6.828;2023-05-19T09:08:18;24.90;1.00
20839;DHT22;10580;51.092;6.828;2023-05-19T09:10:49;24.80;1.00
20839;DHT22;10580;51.092;6.828;2023-05-19T09:16:23;25.50;1.00
20839;DHT22;10580;51.092;6.828;2023-05-19T09:18:57;25.60;1.00
20839;DHT22;10580;51.092;6.828;2023-05-19T09:21:36;25.60;1.00
20839;DHT22;10580;51.092;6.828;2023-05-19T09:24:15;25.40;1.00
20839;DHT22;10580;51.092;6.828;2023-05-19T09:26:47;24.90;1.00
20839;DHT22;10580;51.092;6.828;2023-05-19T09:34:26;24.70;1.00
20839;DHT22;10580;51.092;6.828;2023-05-19T09:36:54;24.60;1.00
20839;DHT22;10580;51.092;6.828;2023-05-19T09:39:23;24.40;1.00
20839;DHT22;10580;51.092;6.828;2023-05-19T09:41:57;24.60;1.00
20839;DHT22;10580;51.092;6.828;2023-05-19T09:44:24;24.50;1.00
20839;DHT22;10580;51.092;6.828;2023-05-19T09:46:59;24.40;1.00
20839;DHT22;10580;51.092;6.828;2023-05-19T09:52:09;24.30;1.00
20839;DHT22;10580;51.092;6.828;2023-05-19T09:54:35;24.20;1.00
20839;DHT22;10580;51.092;6.828;2023-05-19T09:57:03;23.50;1.00
20839;DHT22;10580;51.092;6.828;2023-05-19T09:59:53;23.20;1.00
20839;DHT22;10580;51.092;6.828;2023-05-19T10:02:23;22.80;99.90
20839;DHT22;10580;51.092;6.828;2023-05-19T10:04:51;22.80;99.90
20839;DHT22;10580;51.092;6.828;2023-05-19T10:07:22;23.20;99.90
20839;DHT22;10580;51.092;6.828;2023-05-19T10:09:49;23.00;1.00
20839;DHT22;10580;51.092;6.828;2023-05-19T10:12:16;22.40;1.00
20839;DHT22;10580;51.092;6.828;2023-05-19T10:14:42;22.00;99.90
20839;DHT22;10580;51.092;6.828;2023-05-19T10:17:08;21.80;99.90
20839;DHT22;10580;51.092;6.828;2023-05-19T10:19:36;21.80;1.00
20839;DHT22;10580;51.092;6.828;2023-05-19T10:22:05;21.80;99.90
20839;DHT22;10580;51.092;6.828;2023-05-19T10:24:31;21.80;99.90
20839;DHT22;10580;51.092;6.828;2023-05-19T10:27:06;22.00;99.90
20839;DHT22;10580;51.092;6.828;2023-05-19T10:29:35;22.00;99.90
20839;DHT22;10580;51.092;6.828;2023-05-19T10:32:08;22.30;1.00
20839;DHT22;10580;51.092;6.828;2023-05-19T10:40:32;22.00;99.90
20839;DHT22;10580;51.092;6.828;2023-05-19T10:46:03;22.50;99.90
20839;DHT22;10580;51.092;6.828;2023-05-19T10:48:32;22.80;1.00
20839;DHT22;10580;51.092;6.828;2023-05-19T10:51:04;23.20;1.00
20839;DHT22;10580;51.092;6.828;2023-05-19T10:53:47;23.20;99.90
20839;DHT22;10580;51.092;6.828;2023-05-19T10:56:47;23.40;99.90
20839;DHT22;10580;51.092;6.828;2023-05-19T10:59:38;23.60;99.90
20839;DHT22;10580;51.092;6.828;2023-05-19T11:02:05;23.30;99.90
20839;DHT22;10580;51.092;6.828;2023-05-19T11:04:48;23.90;1.00
20839;DHT22;10580;51.092;6.828;2023-05-19T11:07:24;24.60;1.00
20839;DHT22;10580;51.092;6.828;2023-05-19T11:09:52;24.80;99.90
20839;DHT22;10580;51.092;6.828;2023-05-19T11:12:22;24.60;1.00
20839;DHT22;10580;51.092;6.828;2023-05-19T11:14:58;23.90;99.90
20839;DHT22;10580;51.092;6.828;2023-05-19T11:17:24;23.20;99.90
20839;DHT22;10580;51.092;6.828;2023-05-19T11:19:57;23.10;99.90
20839;DHT22;10580;51.092;6.828;2023-05-19T11:22:28;23.40;99.90
20839;DHT22;10580;51.092;6.828;2023-05-19T11:25:02;23.60;99.90
20839;DHT22;10580;51.092;6.828;2023-05-19T11:27:32;23.90;1.00
20839;DHT22;10580;51.092;6.828;2023-05-19T11:30:11;23.90;99.90
20839;DHT22;10580;51.092;6.828;2023-05-19T11:32:39;23.90;99.90
20839;DHT22;10580;51.092;6.828;2023-05-19T11:35:11;24.70;99.90
20839;DHT22;10580;51.092;6.828;2023-05-19T11:37:43;24.80;1.00
20839;DHT22;10580;51.092;6.828;2023-05-19T11:40:21;24.40;99.90
20839;DHT22;10580;51.092;6.828;2023-05-19T11:42:47;23.90;99.90
20839;DHT22;10580;51.092;6.828;2023-05-19T11:45:13;23.40;99.90
20839;DHT22;10580;51.092;6.828;2023-05-19T11:47:38;23.00;99.90
20839;DHT22;10580;51.092;6.828;2023-05-19T11:50:10;22.90;99.90
20839;DHT22;10580;51.092;6.828;2023-05-19T11:52:37;23.00;99.90
20839;DHT22;10580;51.092;6.828;2023-05-19T11:55:19;23.30;99.90
20839;DHT22;10580;51.092;6.828;2023-05-19T11:58:02;23.50;99.90
20839;DHT22;10580;51.092;6.828;2023-05-19T12:00:29;23.80;99.90
20839;DHT22;10580;51.092;6.828;2023-05-19T12:03:02;24.00;1.00
20839;DHT22;10580;51.092;6.828;2023-05-19T12:05:28;24.10;99.90
20839;DHT22;10580;51.092;6.828;2023-05-19T12:07:56;24.10;1.00
20839;DHT22;10580;51.092;6.828;2023-05-19T12:10:30;24.00;99.90
20839;DHT22;10580;51.092;6.828;2023-05-19T12:13:00;23.30;99.90
20839;DHT22;10580;51.092;6.828;2023-05-19T12:15:30;22.70;99.90
20839;DHT22;10580;51.092;6.828;2023-05-19T12:18:08;22.30;99.90
20839;DHT22;10580;51.092;6.828;2023-05-19T12:20:37;22.30;99.90
20839;DHT22;10580;51.092;6.828;2023-05-19T12:23:08;22.70;99.90
20839;DHT22;10580;51.092;6.828;2023-05-19T12:25:34;22.90;99.90
20839;DHT22;10580;51.092;6.828;2023-05-19T12:28:00;23.10;99.90
20839;DHT22;10580;51.092;6.828;2023-05-19T12:30:30;23.10;99.90
20839;DHT22;10580;51.092;6.828;2023-05-19T12:32:56;23.10;99.90
20839;DHT22;10580;51.092;6.828;2023-05-19T12:35:42;23.40;99.90
20839;DHT22;10580;51.092;6.828;2023-05-19T12:41:12;24.10;99.90
20839;DHT22;10580;51.092;6.828;2023-05-19T12:43:58;24.10;99.90
20839;DHT22;10580;51.092;6.828;2023-05-19T12:52:49;23.50;99.90
20839;DHT22;10580;51.092;6.828;2023-05-19T12:55:26;23.80;99.90
20839;DHT22;10580;51.092;6.828;2023-05-19T12:57:56;23.70;99.90
20839;DHT22;10580;51.092;6.828;2023-05-19T13:00:22;23.70;99.90
20839;DHT22;10580;51.092;6.828;2023-05-19T13:03:02;23.70;99.90
20839;DHT22;10580;51.092;6.828;2023-05-19T13:05:30;23.50;1.00
20839;DHT22;10580;51.092;6.828;2023-05-19T13:08:10;23.40;99.90
20839;DHT22;10580;51.092;6.828;2023-05-19T13:10:37;23.30;99.90
20839;DHT22;10580;51.092;6.828;2023-05-19T13:13:12;23.20;99.90
20839;DHT22;10580;51.092;6.828;2023-05-19T13:15:43;23.30;99.90
20839;DHT22;10580;51.092;6.828;2023-05-19T13:18:17;23.50;1.00
20839;DHT22;10580;51.092;6.828;2023-05-19T13:20:46;23.50;99.90
20839;DHT22;10580;51.092;6.828;2023-05-19T13:23:25;23.60;99.90
20839;DHT22;10580;51.092;6.828;2023-05-19T13:25:53;23.70;1.00
20839;DHT22;10580;51.092;6.828;2023-05-19T13:36:42;22.60;99.90
20839;DHT22;10580;51.092;6.828;2023-05-19T13:39:12;22.70;99.90
20839;DHT22;10580;51.092;6.828;2023-05-19T13:54:17;23.00;99.90
20839;DHT22;10580;51.092;6.828;2023-05-19T13:57:05;23.10;99.90
20839;DHT22;10580;51.092;6.828;2023-05-19T14:02:11;23.20;1.00
20839;DHT22;10580;51.092;6.828;2023-05-19T14:05:18;23.10;99.90
20839;DHT22;10580;51.092;6.828;2023-05-19T14:08:06;23.30;99.90
20839;DHT22;10580;51.092;6.828;2023-05-19T14:10:37;23.30;99.90
20839;DHT22;10580;51.092;6.828;2023-05-19T14:13:12;23.50;1.00
20839;DHT22;10580;51.092;6.828;2023-05-19T14:15:38;23.60;1.00
20839;DHT22;10580;51.092;6.828;2023-05-19T14:18:21;23.00;99.90
20839;DHT22;10580;51.092;6.828;2023-05-19T14:20:50;22.80;99.90
20839;DHT22;10580;51.092;6.828;2023-05-19T14:23:16;22.80;99.90
20839;DHT22;10580;51.092;6.828;2023-05-19T14:25:42;22.80;99.90
20839;DHT22;10580;51.092;6.828;2023-05-19T14:28:07;23.00;1.00
20839;DHT22;10580;51.092;6.828;2023-05-19T14:30:43;23.20;99.90
20839;DHT22;10580;51.092;6.828;2023-05-19T14:33:15;23.40;1.00
20839;DHT22;10580;51.092;6.828;2023-05-19T14:35:52;23.30;99.90
20839;DHT22;10580;51.092;6.828;2023-05-19T14:38:19;23.20;1.00
20839;DHT22;10580;51.092;6.828;2023-05-19T14:40:57;23.10;1.00
20839;DHT22;10580;51.092;6.828;2023-05-19T14:43:26;22.90;99.90
20839;DHT22;10580;51.092;6.828;2023-05-19T14:45:55;22.70;99.90
20839;DHT22;10580;51.092;6.828;2023-05-19T14:48:24;22.60;99.90
20839;DHT22;10580;51.092;6.828;2023-05-19T14:50:59;22.60;99.90
20839;DHT22;10580;51.092;6.828;2023-05-19T14:53:28;22.60;99.90
20839;DHT22;10580;51.092;6.828;2023-05-19T14:55:54;22.60;99.90
20839;DHT22;10580;51.092;6.828;2023-05-19T15:01:25;22.40;99.90
20839;DHT22;10580;51.092;6.828;2023-05-19T15:10:00;22.50;99.90
20839;DHT22;10580;51.092;6.828;2023-05-19T15:12:26;22.40;99.90
20839;DHT22;10580;51.092;6.828;2023-05-19T15:14:52;22.30;99.90
20839;DHT22;10580;51.092;6.828;2023-05-19T15:17:26;22.30;99.90
20839;DHT22;10580;51.092;6.828;2023-05-19T15:19:52;22.20;99.90
20839;DHT22;10580;51.092;6.828;2023-05-19T15:22:18;22.00;99.90
20839;DHT22;10580;51.092;6.828;2023-05-19T15:24:47;22.00;99.90
20839;DHT22;10580;51.092;6.828;2023-05-19T15:27:12;22.20;99.90
20839;DHT22;10580;51.092;6.828;2023-05-19T15:29:38;22.20;99.90
20839;DHT22;10580;51.092;6.828;2023-05-19T15:32:05;22.00;99.90
20839;DHT22;10580;51.092;6.828;2023-05-19T15:34:31;22.00;99.90
20839;DHT22;10580;51.092;6.828;2023-05-19T15:36:57;22.00;99.90
20839;DHT22;10580;51.092;6.828;2023-05-19T15:39:25;22.00;99.90
20839;DHT22;10580;51.092;6.828;2023-05-19T15:41:50;21.90;99.90
20839;DHT22;10580;51.092;6.828;2023-05-19T15:44:22;21.90;99.90
20839;DHT22;10580;51.092;6.828;2023-05-19T15:46:48;21.80;99.90
20839;DHT22;10580;51.092;6.828;2023-05-19T15:49:16;21.80;99.90
20839;DHT22;10580;51.092;6.828;2023-05-19T15:51:48;21.70;99.90
20839;DHT22;10580;51.092;6.828;2023-05-19T15:54:20;21.70;99.90
20839;DHT22;10580;51.092;6.828;2023-05-19T15:56:46;21.60;99.90
20839;DHT22;10580;51.092;6.828;2023-05-19T15:59:12;21.60;99.90
20839;DHT22;10580;51.092;6.828;2023-05-19T16:01:37;21.40;99.90
20839;DHT22;10580;51.092;6.828;2023-05-19T16:04:03;21.40;99.90
20839;DHT22;10580;51.092;6.828;2023-05-19T16:06:37;21.40;99.90
20839;DHT22;10580;51.092;6.828;2023-05-19T16:14:08;21.20;99.90
20839;DHT22;10580;51.092;6.828;2023-05-19T16:16:46;21.20;99.90
20839;DHT22;10580;51.092;6.828;2023-05-19T16:19:18;21.10;99.90
20839;DHT22;10580;51.092;6.828;2023-05-19T16:22:11;21.10;99.90
20839;DHT22;10580;51.092;6.828;2023-05-19T16:24:44;21.00;99.90
20839;DHT22;10580;51.092;6.828;2023-05-19T16:27:33;20.90;99.90
20839;DHT22;10580;51.092;6.828;2023-05-19T16:33:12;20.90;99.90
20839;DHT22;10580;51.092;6.828;2023-05-19T16:36:27;20.80;99.90
20839;DHT22;10580;51.092;6.828;2023-05-19T16:39:12;20.90;99.90
20839;DHT22;10580;51.092;6.828;2023-05-19T16:41:52;20.70;99.90
20839;DHT22;10580;51.092;6.828;2023-05-19T16:48:35;20.70;99.90
20839;DHT22;10580;51.092;6.828;2023-05-19T16:51:21;20.60;99.90
20839;DHT22;10580;51.092;6.828;2023-05-19T16:57:32;20.40;99.90
20839;DHT22;10580;51.092;6.828;2023-05-19T17:07:02;20.30;99.90
20839;DHT22;10580;51.092;6.828;2023-05-19T17:13:15;20.10;99.90
20839;DHT22;10580;51.092;6.828;2023-05-19T17:16:01;20.00;99.90
20839;DHT22;10580;51.092;6.828;2023-05-19T17:18:36;19.90;99.90
20839;DHT22;10580;51.092;6.828;2023-05-19T17:21:24;19.80;99.90
20839;DHT22;10580;51.092;6.828;2023-05-19T17:35:49;19.50;99.90
20839;DHT22;10580;51.092;6.828;2023-05-19T18:08:38;18.80;99.90
20839;DHT22;10580;51.092;6.828;2023-05-19T18:11:23;18.80;99.90
